createdAt,value
2019-03-24T00:00:45.434Z,45.85
2019-03-24T00:03:15.082Z,51.90
2019-03-24T00:05:44.765Z,48.13
2019-03-24T00:08:14.404Z,42.65
2019-03-24T00:10:44.093Z,46.70
2019-03-24T00:13:13.740Z,43.10
2019-03-24T00:15:43.360Z,45.50
2019-03-24T00:18:13.004Z,44.13
2019-03-24T00:20:42.618Z,45.23
2019-03-24T00:23:12.267Z,44.80
2019-03-24T00:25:41.886Z,46.15
2019-03-24T00:28:11.597Z,50.05
2019-03-24T00:30:41.217Z,45.85
2019-03-24T00:33:10.877Z,48.15
2019-03-24T00:35:40.493Z,46.48
2019-03-24T00:38:10.183Z,41.08
2019-03-24T00:40:39.834Z,41.88
2019-03-24T00:43:09.450Z,44.58
2019-03-24T00:45:39.097Z,41.50
2019-03-24T00:48:08.714Z,44.10
2019-03-24T00:50:38.351Z,39.83
2019-03-24T00:53:08.039Z,38.78
2019-03-24T00:55:37.753Z,43.33
2019-03-24T00:58:07.370Z,41.28
2019-03-24T01:00:51.807Z,41.80
2019-03-24T01:03:21.567Z,41.70
2019-03-24T01:05:51.290Z,36.73
2019-03-24T01:08:20.979Z,39.13
2019-03-24T01:10:50.594Z,42.75
2019-03-24T01:13:20.311Z,41.77
2019-03-24T01:15:50.001Z,41.25
2019-03-24T01:18:19.647Z,40.28
2019-03-24T01:20:49.271Z,42.03
2019-03-24T01:23:18.989Z,38.98
2019-03-24T01:25:48.605Z,38.83
2019-03-24T01:28:18.322Z,36.53
2019-03-24T01:30:47.941Z,38.85
2019-03-24T01:33:17.561Z,45.83
2019-03-24T01:35:47.201Z,46.55
2019-03-24T01:38:16.821Z,49.73
2019-03-24T01:40:46.466Z,48.45
2019-03-24T01:43:16.159Z,46.98
2019-03-24T01:45:45.800Z,42.15
2019-03-24T01:48:15.412Z,46.08
2019-03-24T01:50:45.057Z,47.25
2019-03-24T01:53:14.676Z,49.58
2019-03-24T01:55:44.391Z,55.05
2019-03-24T01:58:14.003Z,51.73
2019-03-24T02:00:43.653Z,53.98
2019-03-24T02:03:13.338Z,51.10
2019-03-24T02:05:42.956Z,52.38
2019-03-24T02:08:12.602Z,51.50
2019-03-24T02:10:42.288Z,52.55
2019-03-24T02:13:12.005Z,46.88
2019-03-24T02:15:41.712Z,49.10
2019-03-24T02:18:11.335Z,49.15
2019-03-24T02:20:41.027Z,44.88
2019-03-24T02:23:10.673Z,49.13
2019-03-24T02:25:40.290Z,43.15
2019-03-24T02:28:10.021Z,41.18
2019-03-24T02:30:39.643Z,42.38
2019-03-24T02:33:09.257Z,41.53
2019-03-24T02:35:38.908Z,38.02
2019-03-24T02:38:08.591Z,44.20
2019-03-24T02:40:38.240Z,40.28
2019-03-24T02:43:07.859Z,40.23
2019-03-24T02:45:37.505Z,42.50
2019-03-24T02:48:07.199Z,39.50
2019-03-24T02:50:36.841Z,43.25
2019-03-24T02:53:06.455Z,41.15
2019-03-24T02:55:36.122Z,38.73
2019-03-24T02:58:05.807Z,42.75
2019-03-24T03:00:35.631Z,45.20
2019-03-24T03:03:05.351Z,52.35
2019-03-24T03:05:35.045Z,42.48
2019-03-24T03:08:04.823Z,46.10
2019-03-24T03:10:36.086Z,38.28
2019-03-24T03:13:05.737Z,48.00
2019-03-24T03:15:35.366Z,40.67
2019-03-24T03:18:05.147Z,43.68
2019-03-24T03:20:34.826Z,47.17
2019-03-24T03:23:04.554Z,50.30
2019-03-24T03:25:34.180Z,50.73
2019-03-24T03:28:03.815Z,46.65
2019-03-24T03:30:33.440Z,51.92
2019-03-24T03:33:03.069Z,52.38
2019-03-24T03:35:32.709Z,49.90
2019-03-24T03:38:02.341Z,51.23
2019-03-24T03:40:31.974Z,51.65
2019-03-24T03:43:01.603Z,52.38
2019-03-24T03:45:31.446Z,54.45
2019-03-24T03:48:01.079Z,56.42
2019-03-24T03:50:30.863Z,56.70
2019-03-24T03:53:00.557Z,52.62
2019-03-24T03:55:30.200Z,50.12
2019-03-24T03:57:59.834Z,50.63
2019-03-24T04:00:37.872Z,56.30
2019-03-24T04:03:08.105Z,49.18
2019-03-24T04:05:37.745Z,53.17
2019-03-24T04:08:07.935Z,44.88
2019-03-24T04:10:37.583Z,50.80
2019-03-24T04:13:07.279Z,54.70
2019-03-24T04:15:36.943Z,52.17
2019-03-24T04:18:06.557Z,52.35
2019-03-24T04:20:36.256Z,65.03
2019-03-24T04:23:05.975Z,61.50
2019-03-24T04:25:35.597Z,61.05
2019-03-24T04:28:05.385Z,53.42
2019-03-24T04:30:35.016Z,51.35
2019-03-24T04:33:04.669Z,50.55
2019-03-24T04:35:34.277Z,58.85
2019-03-24T04:38:03.942Z,61.25
2019-03-24T04:40:33.548Z,59.50
2019-03-24T04:43:03.197Z,58.65
2019-03-24T04:45:32.826Z,57.60
2019-03-24T04:48:03.357Z,53.60
2019-03-24T04:50:32.974Z,53.85
2019-03-24T04:53:02.599Z,50.60
2019-03-24T04:55:32.311Z,53.90
2019-03-24T04:58:01.932Z,57.45
2019-03-24T05:00:37.285Z,57.88
2019-03-24T05:03:06.964Z,60.40
2019-03-24T05:05:37.537Z,57.08
2019-03-24T05:08:07.501Z,53.40
2019-03-24T05:10:37.143Z,53.92
2019-03-24T05:13:06.771Z,56.73
2019-03-24T05:15:36.416Z,60.98
2019-03-24T05:18:06.176Z,54.35
2019-03-24T05:20:35.819Z,52.35
2019-03-24T05:23:05.446Z,45.90
2019-03-24T05:25:35.089Z,48.98
2019-03-24T05:28:04.788Z,46.05
2019-03-24T05:30:34.439Z,46.00
2019-03-24T05:33:04.060Z,52.80
2019-03-24T05:35:33.687Z,49.65
2019-03-24T05:38:03.325Z,52.62
2019-03-24T05:40:32.948Z,51.25
2019-03-24T05:43:02.601Z,52.10
2019-03-24T05:45:32.219Z,51.10
2019-03-24T05:48:01.867Z,48.50
2019-03-24T05:50:31.487Z,51.60
2019-03-24T05:53:01.143Z,41.45
2019-03-24T05:55:30.830Z,47.43
2019-03-24T05:58:00.475Z,51.58
2019-03-24T06:00:30.093Z,49.73
2019-03-24T06:02:59.748Z,52.78
2019-03-24T06:05:29.453Z,46.40
2019-03-24T06:07:59.120Z,53.02
2019-03-24T06:10:28.743Z,52.73
2019-03-24T06:12:58.368Z,59.50
2019-03-24T06:15:28.009Z,55.85
2019-03-24T06:17:57.632Z,55.35
2019-03-24T06:20:27.273Z,50.30
2019-03-24T06:22:56.885Z,49.98
2019-03-24T06:25:26.527Z,51.48
2019-03-24T06:27:56.214Z,50.73
2019-03-24T06:30:25.865Z,200.22
2019-03-24T06:32:55.480Z,95.47
2019-03-24T06:35:25.142Z,53.35
2019-03-24T06:37:54.768Z,56.80
2019-03-24T06:40:24.385Z,54.33
2019-03-24T06:42:54.033Z,47.98
2019-03-24T06:45:28.514Z,53.95
2019-03-24T06:47:58.153Z,55.58
2019-03-24T06:50:26.378Z,52.62
2019-03-24T06:52:56.008Z,57.75
2019-03-24T06:55:25.637Z,51.50
2019-03-24T06:57:55.294Z,54.88
2019-03-24T07:00:24.922Z,53.08
2019-03-24T07:02:54.649Z,51.90
2019-03-24T07:05:24.264Z,49.23
2019-03-24T07:07:53.895Z,48.85
2019-03-24T07:10:23.544Z,54.45
2019-03-24T07:12:53.164Z,52.75
2019-03-24T07:15:22.817Z,49.42
2019-03-24T07:17:52.444Z,54.00
2019-03-24T07:20:22.086Z,47.53
2019-03-24T07:22:51.715Z,51.28
2019-03-24T07:25:21.432Z,52.93
2019-03-24T07:27:51.156Z,48.87
2019-03-24T07:30:21.133Z,45.20
2019-03-24T07:32:50.755Z,46.95
2019-03-24T07:35:20.377Z,54.27
2019-03-24T07:37:50.016Z,50.58
2019-03-24T07:40:19.777Z,55.08
2019-03-24T07:42:49.420Z,54.03
2019-03-24T07:45:19.118Z,58.13
2019-03-24T07:47:49.157Z,52.35
2019-03-24T07:50:19.012Z,52.83
2019-03-24T07:52:48.652Z,48.75
2019-03-24T07:55:18.270Z,57.88
2019-03-24T07:57:47.916Z,55.48
2019-03-24T08:00:22.124Z,61.48
2019-03-24T08:05:21.658Z,57.78
2019-03-24T08:07:51.284Z,53.35
2019-03-24T08:10:20.933Z,59.55
2019-03-24T08:12:52.304Z,66.85
2019-03-24T08:15:22.094Z,61.65
2019-03-24T08:17:51.718Z,63.30
2019-03-24T08:20:21.362Z,67.58
2019-03-24T08:22:50.982Z,67.58
2019-03-24T08:25:20.628Z,62.48
2019-03-24T08:27:50.254Z,68.55
2019-03-24T08:30:33.162Z,72.25
2019-03-24T08:33:02.864Z,67.00
2019-03-24T08:35:32.555Z,73.15
2019-03-24T08:38:02.193Z,77.80
2019-03-24T08:40:31.983Z,82.15
2019-03-24T08:43:01.632Z,84.90
2019-03-24T08:45:32.152Z,83.72
2019-03-24T08:48:01.879Z,71.02
2019-03-24T08:50:31.493Z,77.30
2019-03-24T08:53:01.144Z,86.10
2019-03-24T08:55:30.767Z,78.25
2019-03-24T08:58:00.419Z,78.72
2019-03-24T09:00:31.058Z,88.67
2019-03-24T09:03:00.831Z,89.28
2019-03-24T09:05:30.454Z,85.40
2019-03-24T09:08:00.081Z,87.33
2019-03-24T09:10:29.794Z,94.67
2019-03-24T09:12:59.414Z,89.07
2019-03-24T09:15:29.065Z,93.17
2019-03-24T09:17:58.684Z,88.30
2019-03-24T09:20:28.329Z,97.42
2019-03-24T09:22:57.953Z,89.05
2019-03-24T09:25:27.656Z,85.45
2019-03-24T09:27:57.300Z,90.57
2019-03-24T09:30:38.036Z,95.45
2019-03-24T09:33:07.796Z,95.38
2019-03-24T09:35:38.280Z,94.72
2019-03-24T09:38:08.237Z,96.12
2019-03-24T09:40:38.109Z,103.17
2019-03-24T09:43:07.930Z,99.67
2019-03-24T09:45:37.843Z,101.55
2019-03-24T09:48:07.883Z,89.50
2019-03-24T09:50:37.826Z,105.83
2019-03-24T09:53:07.628Z,102.85
2019-03-24T09:55:37.261Z,93.22
2019-03-24T09:58:07.053Z,104.55
2019-03-24T10:00:36.760Z,103.53
2019-03-24T10:03:06.556Z,111.77
2019-03-24T10:05:36.190Z,104.87
2019-03-24T10:08:05.910Z,105.58
2019-03-24T10:10:35.544Z,101.80
2019-03-24T10:13:05.202Z,101.18
2019-03-24T10:15:34.885Z,109.40
2019-03-24T10:18:04.686Z,99.60
2019-03-24T10:20:34.304Z,102.60
2019-03-24T10:23:03.959Z,99.80
2019-03-24T10:25:33.600Z,90.97
2019-03-24T10:28:03.222Z,97.20
2019-03-24T10:30:32.871Z,94.70
2019-03-24T10:33:03.745Z,100.82
2019-03-24T10:35:33.407Z,93.42
2019-03-24T10:38:03.025Z,93.00
2019-03-24T10:40:32.762Z,88.65
2019-03-24T10:43:02.382Z,92.22
2019-03-24T10:45:32.103Z,92.02
2019-03-24T10:48:01.739Z,96.70
2019-03-24T10:50:31.434Z,91.63
2019-03-24T10:53:01.095Z,89.42
2019-03-24T10:55:30.755Z,92.97
2019-03-24T10:58:00.377Z,94.67
2019-03-24T11:00:39.461Z,92.95
2019-03-24T11:03:09.258Z,88.80
2019-03-24T11:05:38.936Z,87.20
2019-03-24T11:08:08.707Z,92.17
2019-03-24T11:10:38.637Z,89.72
2019-03-24T11:13:08.325Z,85.92
2019-03-24T11:15:38.096Z,88.25
2019-03-24T11:18:07.883Z,87.65
2019-03-24T11:20:37.523Z,80.67
2019-03-24T11:23:07.179Z,88.62
2019-03-24T11:25:36.804Z,83.15
2019-03-24T11:28:06.605Z,84.87
2019-03-24T11:30:36.372Z,86.02
2019-03-24T11:33:06.162Z,85.35
2019-03-24T11:35:35.791Z,86.85
2019-03-24T11:38:05.419Z,76.53
2019-03-24T11:40:35.068Z,77.55
2019-03-24T11:43:04.840Z,76.72
2019-03-24T11:45:34.570Z,76.10
2019-03-24T11:48:04.366Z,83.40
2019-03-24T11:50:34.094Z,80.22
2019-03-24T11:53:03.731Z,84.97
2019-03-24T11:55:33.384Z,86.97
2019-03-24T11:58:06.081Z,91.70
2019-03-24T12:00:37.363Z,95.62
2019-03-24T12:03:07.243Z,89.72
2019-03-24T12:05:36.964Z,92.42
2019-03-24T12:08:06.803Z,81.92
2019-03-24T12:10:36.547Z,95.32
2019-03-24T12:13:06.176Z,87.60
2019-03-24T12:15:36.046Z,95.25
2019-03-24T12:18:05.838Z,96.00
2019-03-24T12:20:35.538Z,88.50
2019-03-24T12:23:05.260Z,86.95
2019-03-24T12:25:34.879Z,96.53
2019-03-24T12:28:04.605Z,87.75
2019-03-24T12:30:34.231Z,91.17
2019-03-24T12:33:03.955Z,88.15
2019-03-24T12:35:33.584Z,88.10
2019-03-24T12:38:03.651Z,86.10
2019-03-24T12:40:33.291Z,78.55
2019-03-24T12:43:02.921Z,82.97
2019-03-24T12:45:33.718Z,83.75
2019-03-24T12:48:03.584Z,87.35
2019-03-24T12:50:33.250Z,77.42
2019-03-24T12:53:02.949Z,85.17
2019-03-24T12:55:32.617Z,87.95
2019-03-24T12:58:02.238Z,81.00
2019-03-24T13:00:38.074Z,81.28
2019-03-24T13:03:07.918Z,85.92
2019-03-24T13:05:37.809Z,85.25
2019-03-24T13:08:15.869Z,76.57
2019-03-24T13:10:46.848Z,79.25
2019-03-24T13:13:16.549Z,76.95
2019-03-24T13:15:46.320Z,76.00
2019-03-24T13:18:15.988Z,69.92
2019-03-24T13:20:45.685Z,74.32
2019-03-24T13:23:15.354Z,74.67
2019-03-24T13:25:44.986Z,74.37
2019-03-24T13:28:14.645Z,69.05
2019-03-24T13:30:44.278Z,65.50
2019-03-24T13:33:13.942Z,71.47
2019-03-24T13:35:43.593Z,76.75
2019-03-24T13:38:13.255Z,72.08
2019-03-24T13:40:42.888Z,64.20
2019-03-24T13:43:12.517Z,65.67
2019-03-24T13:45:42.169Z,62.27
2019-03-24T13:48:11.864Z,58.17
2019-03-24T13:50:41.513Z,62.33
2019-03-24T13:53:11.216Z,63.00
2019-03-24T13:55:52.492Z,63.60
2019-03-24T13:58:22.135Z,65.32
2019-03-24T14:00:51.770Z,55.12
2019-03-24T14:03:21.410Z,61.42
2019-03-24T14:05:51.059Z,67.10
2019-03-24T14:08:20.760Z,68.45
2019-03-24T14:10:50.420Z,60.55
2019-03-24T14:13:20.058Z,60.63
2019-03-24T14:15:49.859Z,57.98
2019-03-24T14:18:19.484Z,66.55
2019-03-24T14:20:49.143Z,62.05
2019-03-24T14:23:18.785Z,61.28
2019-03-24T14:25:48.659Z,61.75
2019-03-24T14:28:18.293Z,63.63
2019-03-24T14:30:49.934Z,57.80
2019-03-24T14:33:19.699Z,57.30
2019-03-24T14:35:49.439Z,57.62
2019-03-24T14:38:19.235Z,54.67
2019-03-24T14:40:48.937Z,59.67
2019-03-24T14:43:18.926Z,56.45
2019-03-24T14:45:48.552Z,55.80
2019-03-24T14:48:18.280Z,53.63
2019-03-24T14:50:54.433Z,57.98
2019-03-24T14:53:19.296Z,61.60
2019-03-24T14:55:48.926Z,54.93
2019-03-24T14:58:18.581Z,57.17
2019-03-24T15:00:48.625Z,53.33
2019-03-24T15:03:22.182Z,54.98
2019-03-24T15:05:51.889Z,57.43
2019-03-24T15:08:21.547Z,53.48
2019-03-24T15:10:51.180Z,49.18
2019-03-24T15:13:20.851Z,52.25
2019-03-24T15:15:50.495Z,53.10
2019-03-24T15:18:20.196Z,51.25
2019-03-24T15:20:49.863Z,51.85
2019-03-24T15:23:19.489Z,52.70
2019-03-24T15:25:49.155Z,52.65
2019-03-24T15:28:18.791Z,52.48
2019-03-24T15:30:48.441Z,54.03
2019-03-24T15:33:18.079Z,50.63
2019-03-24T15:35:47.735Z,49.93
2019-03-24T15:38:17.366Z,55.33
2019-03-24T15:40:49.491Z,54.80
2019-03-24T15:43:18.385Z,57.15
2019-03-24T15:45:48.048Z,48.70
2019-03-24T15:48:17.680Z,52.62
2019-03-24T15:50:47.365Z,49.60
2019-03-24T15:53:16.996Z,47.05
2019-03-24T15:55:46.898Z,52.15
2019-03-24T15:58:16.557Z,50.52
2019-03-24T16:00:48.404Z,53.17
2019-03-24T16:03:18.298Z,53.52
2019-03-24T16:05:48.132Z,49.35
2019-03-24T16:08:17.879Z,55.52
2019-03-24T16:10:47.512Z,53.68
2019-03-24T16:13:17.164Z,54.08
2019-03-24T16:15:46.939Z,55.48
2019-03-24T16:18:16.617Z,52.70
2019-03-24T16:20:46.386Z,49.40
2019-03-24T16:23:16.020Z,60.25
2019-03-24T16:25:45.742Z,56.35
2019-03-24T16:28:15.372Z,54.35
2019-03-24T16:30:45.113Z,58.63
2019-03-24T16:33:14.812Z,57.17
2019-03-24T16:35:44.546Z,56.63
2019-03-24T16:38:14.188Z,55.58
2019-03-24T16:40:43.921Z,54.03
2019-03-24T16:43:13.557Z,57.85
2019-03-24T16:45:43.237Z,54.30
2019-03-24T16:48:12.962Z,62.90
2019-03-24T16:50:42.634Z,53.50
2019-03-24T16:53:12.342Z,56.33
2019-03-24T16:55:41.988Z,61.58
2019-03-24T16:58:11.633Z,59.25
2019-03-24T17:00:41.266Z,60.23
2019-03-24T17:03:10.927Z,57.13
2019-03-24T17:05:40.556Z,60.90
2019-03-24T17:08:10.298Z,58.98
2019-03-24T17:10:39.925Z,58.08
2019-03-24T17:13:09.579Z,59.53
2019-03-24T17:15:39.389Z,52.23
2019-03-24T17:18:09.187Z,58.55
2019-03-24T17:20:38.889Z,54.50
2019-03-24T17:23:08.542Z,55.38
2019-03-24T17:25:38.176Z,53.92
2019-03-24T17:28:07.851Z,51.90
2019-03-24T17:30:37.551Z,50.35
2019-03-24T17:33:07.318Z,48.73
2019-03-24T17:35:37.059Z,52.83
2019-03-24T17:38:06.813Z,53.60
2019-03-24T17:40:39.057Z,55.05
2019-03-24T17:43:08.073Z,57.50
2019-03-24T17:45:37.727Z,63.30
2019-03-24T17:48:07.412Z,60.52
2019-03-24T17:50:37.065Z,57.67
2019-03-24T17:53:07.062Z,64.40
2019-03-24T17:55:36.821Z,58.28
2019-03-24T17:58:06.803Z,54.67
2019-03-24T18:00:47.097Z,55.85
2019-03-24T18:03:16.797Z,57.30
2019-03-24T18:05:46.634Z,53.95
2019-03-24T18:08:16.287Z,56.53
2019-03-24T18:10:45.913Z,52.55
2019-03-24T18:13:15.637Z,59.55
2019-03-24T18:15:45.265Z,51.68
2019-03-24T18:18:14.922Z,53.38
2019-03-24T18:20:44.625Z,50.78
2019-03-24T18:23:14.291Z,52.65
2019-03-24T18:25:43.907Z,48.15
2019-03-24T18:28:13.577Z,52.33
2019-03-24T18:30:43.216Z,55.08
2019-03-24T18:33:12.864Z,54.85
2019-03-24T18:35:42.503Z,53.75
2019-03-24T18:38:12.200Z,51.92
2019-03-24T18:40:41.868Z,55.83
2019-03-24T18:43:11.492Z,53.05
2019-03-24T18:45:41.143Z,50.43
2019-03-24T18:48:10.859Z,54.25
2019-03-24T18:50:40.506Z,57.40
2019-03-24T18:53:10.145Z,53.73
2019-03-24T18:55:39.802Z,56.23
2019-03-24T18:58:09.434Z,57.15
2019-03-24T19:00:39.093Z,52.50
2019-03-24T19:03:08.795Z,59.23
2019-03-24T19:05:38.459Z,54.93
2019-03-24T19:08:08.302Z,61.05
2019-03-24T19:10:37.928Z,61.65
2019-03-24T19:13:07.730Z,53.38
2019-03-24T19:15:37.601Z,56.73
2019-03-24T19:18:07.502Z,60.75
2019-03-24T19:20:37.226Z,59.00
2019-03-24T19:23:06.891Z,57.00
2019-03-24T19:25:36.573Z,60.05
2019-03-24T19:28:06.598Z,56.95
2019-03-24T19:30:38.939Z,57.65
2019-03-24T19:33:08.733Z,58.60
2019-03-24T19:35:38.595Z,59.93
2019-03-24T19:38:08.459Z,65.12
2019-03-24T19:40:38.158Z,64.32
2019-03-24T19:43:07.958Z,65.72
2019-03-24T19:45:37.704Z,62.88
2019-03-24T19:48:07.529Z,59.25
2019-03-24T19:50:37.255Z,58.98
2019-03-24T19:53:07.022Z,60.35
2019-03-24T19:55:36.682Z,60.12
2019-03-24T19:58:06.379Z,60.75
2019-03-24T20:00:36.194Z,61.75
2019-03-24T20:03:06.248Z,61.30
2019-03-24T20:05:36.027Z,70.25
2019-03-24T20:08:05.920Z,61.45
2019-03-24T20:10:35.615Z,61.60
2019-03-24T20:13:05.422Z,62.23
2019-03-24T20:15:35.140Z,62.20
2019-03-24T20:18:04.915Z,58.15
2019-03-24T20:20:34.565Z,56.05
2019-03-24T20:23:04.262Z,59.08
2019-03-24T20:25:33.908Z,57.62
2019-03-24T20:28:03.565Z,55.60
2019-03-24T20:30:33.191Z,62.50
2019-03-24T20:33:02.855Z,57.55
2019-03-24T20:35:32.497Z,57.20
2019-03-24T20:38:02.149Z,66.30
2019-03-24T20:40:31.779Z,58.50
2019-03-24T20:43:01.426Z,60.45
2019-03-24T20:45:31.056Z,57.20
2019-03-24T20:48:00.720Z,60.05
2019-03-24T20:50:30.641Z,63.38
2019-03-24T20:53:05.653Z,54.93
2019-03-24T20:55:34.263Z,60.98
2019-03-24T20:58:03.116Z,73.60
2019-03-24T21:00:37.422Z,71.05
2019-03-24T21:05:37.640Z,68.90
2019-03-24T21:08:09.075Z,66.90
2019-03-24T21:10:38.800Z,64.05
2019-03-24T21:13:08.568Z,59.95
2019-03-24T21:15:38.290Z,62.23
2019-03-24T21:18:07.929Z,59.15
2019-03-24T21:20:37.585Z,63.63
2019-03-24T21:23:07.278Z,56.63
2019-03-24T21:25:36.952Z,59.95
2019-03-24T21:28:06.644Z,57.10
2019-03-24T21:30:40.074Z,54.25
2019-03-24T21:33:10.203Z,55.47
2019-03-24T21:35:40.011Z,59.70
2019-03-24T21:38:09.733Z,57.93
2019-03-24T21:40:39.365Z,63.85
2019-03-24T21:43:09.090Z,59.85
2019-03-24T21:45:38.722Z,57.20
2019-03-24T21:48:08.371Z,55.85
2019-03-24T21:50:37.992Z,58.30
2019-03-24T21:53:07.716Z,57.58
2019-03-24T21:55:37.357Z,57.60
2019-03-24T21:58:07.140Z,56.33
2019-03-24T22:00:37.876Z,60.80
2019-03-24T22:03:08.073Z,65.57
2019-03-24T22:05:37.840Z,69.17
2019-03-24T22:08:08.139Z,72.03
2019-03-24T22:10:37.913Z,67.45
2019-03-24T22:13:07.559Z,67.90
2019-03-24T22:15:37.182Z,70.15
2019-03-24T22:18:07.043Z,71.37
2019-03-24T22:20:48.259Z,68.72
2019-03-24T22:23:08.134Z,72.55
2019-03-24T22:25:37.764Z,71.92
2019-03-24T22:28:07.456Z,69.97
2019-03-24T22:30:37.181Z,68.37
2019-03-24T22:33:06.809Z,76.60
2019-03-24T22:35:36.467Z,72.40
2019-03-24T22:38:06.233Z,75.50
2019-03-24T22:40:35.959Z,71.40
2019-03-24T22:43:05.733Z,67.05
2019-03-24T22:45:35.458Z,71.55
2019-03-24T22:48:05.091Z,72.58
2019-03-24T22:50:34.742Z,67.05
2019-03-24T22:53:04.507Z,72.37
2019-03-24T22:55:34.163Z,72.32
2019-03-24T22:58:03.863Z,66.28
2019-03-24T23:00:52.999Z,75.80
2019-03-24T23:03:25.143Z,68.67
2019-03-24T23:05:54.713Z,69.37
2019-03-24T23:08:24.407Z,80.47
2019-03-24T23:10:54.133Z,72.40
2019-03-24T23:13:23.750Z,73.67
2019-03-24T23:15:53.404Z,67.85
2019-03-24T23:18:23.038Z,79.47
2019-03-24T23:20:52.693Z,70.75
2019-03-24T23:23:22.325Z,74.90
2019-03-24T23:25:52.058Z,73.22
2019-03-24T23:28:21.682Z,76.25
2019-03-24T23:30:51.400Z,74.58
2019-03-24T23:33:21.056Z,76.25
2019-03-24T23:35:50.715Z,73.92
2019-03-24T23:38:20.417Z,74.50
2019-03-24T23:40:50.065Z,66.47
2019-03-24T23:43:19.772Z,74.67
2019-03-24T23:45:49.437Z,70.08
2019-03-24T23:48:19.136Z,61.30
2019-03-24T23:50:49.205Z,54.35
2019-03-24T23:53:18.870Z,56.00
2019-03-24T23:55:48.492Z,59.75
2019-03-24T23:58:18.151Z,55.67
